Taylor Fork

This weather station provides wind speed, gust or max wind speed, and wind direction at 9460 ft. near Pika Point above Sunlight Basin.  

This data can be used with temperature and precipitation data from the Carrot Basin SNOTEL site. If the data below is not displayed or up to date, view data here.

Elevation
9460ft
Jump to table bottom
Date Time Temperature
deg F
RH, % Wind Speed Wind Gust Wind Direction
03/05/24 01:00 -1.3 90 13 20 SW - 222
03/05/24 00:00 -0.1 90 13 25 SW - 235
03/04/24 23:00 0.5 90 16 27 W - 257
03/04/24 22:00 1.8 91 17 28 W - 271
03/04/24 21:00 2.6 91 17 29 W - 267
03/04/24 20:00 2.7 91 18 31 W - 261
03/04/24 19:00 3.4 91 13 23 SW - 235
03/04/24 18:00 3.9 91 12 21 SW - 246
03/04/24 17:00 4.4 91 10 26 SW - 226
03/04/24 16:00 5.6 91 11 18 W - 252
03/04/24 15:00 6.7 91 12 19 SW - 238
03/04/24 14:00 6.7 91 11 20 SW - 240
03/04/24 13:00 8.6 91 10 17 SW - 235
03/04/24 12:00 8.5 90 11 22 SW - 228
03/04/24 11:00 9.0 90 11 19 SW - 225
03/04/24 10:00 7.1 90 12 21 SW - 235
03/04/24 09:00 3.5 90 16 24 SW - 215
03/04/24 08:00 1.3 90 14 22 SW - 208
03/04/24 07:00 0.2 90 15 20 S - 197
03/04/24 06:00 0.1 90 12 18 SW - 215
03/04/24 05:00 0.5 90 11 20 SW - 221
03/04/24 04:00 0.9 90 10 16 SW - 225
03/04/24 03:00 1.4 91 10 16 SW - 229
03/04/24 02:00 1.9 91 12 17 SW - 228
03/04/24 01:00 1.4 91 12 19 SW - 215
03/04/24 00:00 1.5 90 12 18 SW - 208
03/03/24 23:00 1.1 90 11 17 SW - 210
03/03/24 22:00 0.4 90 11 16 S - 200
03/03/24 21:00 1.1 90 11 15 S - 190
03/03/24 20:00 0.7 90 11 17 S - 176
03/03/24 19:00 1.3 90 11 16 S - 173
03/03/24 18:00 2.0 90 10 14 S - 191
03/03/24 17:00 2.6 90 11 21 SW - 236
03/03/24 16:00 5.1 90 13 21 W - 254
03/03/24 15:00 7.3 90 13 21 W - 253
03/03/24 14:00 8.8 90 13 22 W - 274
03/03/24 13:00 5.1 89 10 20 SW - 210
03/03/24 12:00 11.5 88 7 16 SW - 222
03/03/24 11:00 10.6 88 6 14 SW - 212
03/03/24 10:00 8.4 88 7 11 SW - 211
03/03/24 09:00 5.2 89 7 10 SW - 204
03/03/24 08:00 2.3 89 10 12 SW - 235
03/03/24 07:00 0.5 90 10 15 SW - 243
03/03/24 06:00 -0.2 90 11 19 SW - 226
03/03/24 05:00 -0.4 91 12 20 SW - 231
03/03/24 04:00 0.8 91 13 20 SW - 221
03/03/24 03:00 0.9 91 13 23 SW - 231
03/03/24 02:00 2.5 91 15 26 W - 260
03/03/24 01:00 3.9 92 13 20 SW - 235
03/03/24 00:00 4.6 92 11 19 SW - 236